sensor_id;sensor_type;location;lat;lon;timestamp;P1;durP1;ratioP1;P2;durP2;ratioP2
17606;SDS011;69222;52.242;20.980;2023-04-25T00:01:39;12.47;;;10.70;;
17606;SDS011;69222;52.242;20.980;2023-04-25T00:04:08;13.07;;;11.37;;
17606;SDS011;69222;52.242;20.980;2023-04-25T00:06:38;13.27;;;11.13;;
17606;SDS011;69222;52.242;20.980;2023-04-25T00:09:06;12.40;;;10.80;;
17606;SDS011;69222;52.242;20.980;2023-04-25T00:11:36;13.73;;;11.23;;
17606;SDS011;69222;52.242;20.980;2023-04-25T00:14:04;14.60;;;12.03;;
17606;SDS011;69222;52.242;20.980;2023-04-25T00:16:33;13.30;;;11.13;;
17606;SDS011;69222;52.242;20.980;2023-04-25T00:19:02;12.37;;;11.07;;
17606;SDS011;69222;52.242;20.980;2023-04-25T00:21:31;13.50;;;12.10;;
17606;SDS011;69222;52.242;20.980;2023-04-25T00:23:59;12.90;;;10.73;;
17606;SDS011;69222;52.242;20.980;2023-04-25T00:26:28;13.80;;;11.57;;
17606;SDS011;69222;52.242;20.980;2023-04-25T00:28:56;12.20;;;10.90;;
17606;SDS011;69222;52.242;20.980;2023-04-25T00:31:24;14.23;;;11.50;;
17606;SDS011;69222;52.242;20.980;2023-04-25T00:33:52;17.33;;;12.43;;
17606;SDS011;69222;52.242;20.980;2023-04-25T00:36:20;13.53;;;10.80;;
17606;SDS011;69222;52.242;20.980;2023-04-25T00:38:50;13.53;;;12.07;;
17606;SDS011;69222;52.242;20.980;2023-04-25T00:41:18;13.77;;;11.70;;
17606;SDS011;69222;52.242;20.980;2023-04-25T00:43:47;14.63;;;12.50;;
17606;SDS011;69222;52.242;20.980;2023-04-25T00:46:16;14.03;;;11.60;;
17606;SDS011;69222;52.242;20.980;2023-04-25T00:48:44;14.27;;;12.67;;
17606;SDS011;69222;52.242;20.980;2023-04-25T00:51:13;15.03;;;12.20;;
17606;SDS011;69222;52.242;20.980;2023-04-25T00:53:43;15.57;;;13.07;;
17606;SDS011;69222;52.242;20.980;2023-04-25T00:56:13;14.87;;;12.57;;
17606;SDS011;69222;52.242;20.980;2023-04-25T00:58:41;15.10;;;13.03;;
17606;SDS011;69222;52.242;20.980;2023-04-25T01:01:09;14.50;;;12.80;;
17606;SDS011;69222;52.242;20.980;2023-04-25T01:03:38;15.40;;;12.60;;
17606;SDS011;69222;52.242;20.980;2023-04-25T01:06:08;13.97;;;12.50;;
17606;SDS011;69222;52.242;20.980;2023-04-25T01:08:37;15.20;;;12.33;;
17606;SDS011;69222;52.242;20.980;2023-04-25T01:11:06;14.43;;;12.97;;
17606;SDS011;69222;52.242;20.980;2023-04-25T01:13:35;15.70;;;12.67;;
17606;SDS011;69222;52.242;20.980;2023-04-25T01:16:03;16.27;;;13.47;;
17606;SDS011;69222;52.242;20.980;2023-04-25T01:18:32;13.70;;;12.27;;
17606;SDS011;69222;52.242;20.980;2023-04-25T01:21:08;14.67;;;13.23;;
17606;SDS011;69222;52.242;20.980;2023-04-25T01:23:37;15.40;;;13.63;;
17606;SDS011;69222;52.242;20.980;2023-04-25T01:26:06;14.73;;;12.60;;
17606;SDS011;69222;52.242;20.980;2023-04-25T01:28:36;13.87;;;12.43;;
17606;SDS011;69222;52.242;20.980;2023-04-25T01:31:04;14.30;;;12.13;;
17606;SDS011;69222;52.242;20.980;2023-04-25T01:33:32;12.97;;;11.63;;
17606;SDS011;69222;52.242;20.980;2023-04-25T01:36:00;13.07;;;11.37;;
17606;SDS011;69222;52.242;20.980;2023-04-25T01:38:29;12.03;;;10.47;;
17606;SDS011;69222;52.242;20.980;2023-04-25T01:40:58;14.37;;;11.00;;
17606;SDS011;69222;52.242;20.980;2023-04-25T01:43:26;15.80;;;11.33;;
17606;SDS011;69222;52.242;20.980;2023-04-25T01:45:54;14.50;;;11.07;;
17606;SDS011;69222;52.242;20.980;2023-04-25T01:48:22;12.47;;;10.73;;
17606;SDS011;69222;52.242;20.980;2023-04-25T01:50:50;13.37;;;10.40;;
17606;SDS011;69222;52.242;20.980;2023-04-25T01:53:18;11.70;;;10.53;;
17606;SDS011;69222;52.242;20.980;2023-04-25T01:55:47;12.50;;;11.07;;
17606;SDS011;69222;52.242;20.980;2023-04-25T01:58:15;13.93;;;11.33;;
17606;SDS011;69222;52.242;20.980;2023-04-25T02:00:43;14.50;;;11.90;;
17606;SDS011;69222;52.242;20.980;2023-04-25T02:03:11;12.53;;;11.03;;
17606;SDS011;69222;52.242;20.980;2023-04-25T02:05:39;11.30;;;10.10;;
17606;SDS011;69222;52.242;20.980;2023-04-25T02:08:08;12.27;;;10.97;;
17606;SDS011;69222;52.242;20.980;2023-04-25T02:10:37;12.33;;;10.53;;
17606;SDS011;69222;52.242;20.980;2023-04-25T02:13:06;14.13;;;11.37;;
17606;SDS011;69222;52.242;20.980;2023-04-25T02:15:34;12.70;;;11.40;;
17606;SDS011;69222;52.242;20.980;2023-04-25T02:18:02;12.90;;;11.43;;
17606;SDS011;69222;52.242;20.980;2023-04-25T02:20:30;11.90;;;10.70;;
17606;SDS011;69222;52.242;20.980;2023-04-25T02:22:58;11.70;;;10.37;;
17606;SDS011;69222;52.242;20.980;2023-04-25T02:25:26;10.97;;;9.87;;
17606;SDS011;69222;52.242;20.980;2023-04-25T02:27:54;15.97;;;10.77;;
17606;SDS011;69222;52.242;20.980;2023-04-25T02:30:24;11.07;;;9.93;;
17606;SDS011;69222;52.242;20.980;2023-04-25T02:32:52;11.70;;;10.50;;
17606;SDS011;69222;52.242;20.980;2023-04-25T02:35:20;10.73;;;9.37;;
17606;SDS011;69222;52.242;20.980;2023-04-25T02:37:48;10.93;;;9.63;;
17606;SDS011;69222;52.242;20.980;2023-04-25T02:40:16;10.30;;;9.20;;
17606;SDS011;69222;52.242;20.980;2023-04-25T02:42:44;12.80;;;9.77;;
17606;SDS011;69222;52.242;20.980;2023-04-25T02:45:13;13.17;;;10.00;;
17606;SDS011;69222;52.242;20.980;2023-04-25T02:47:42;9.17;;;8.27;;
17606;SDS011;69222;52.242;20.980;2023-04-25T02:50:11;10.40;;;8.57;;
17606;SDS011;69222;52.242;20.980;2023-04-25T02:52:38;12.23;;;9.13;;
17606;SDS011;69222;52.242;20.980;2023-04-25T02:55:07;10.60;;;9.20;;
17606;SDS011;69222;52.242;20.980;2023-04-25T02:57:37;11.83;;;8.50;;
17606;SDS011;69222;52.242;20.980;2023-04-25T03:00:05;10.33;;;8.97;;
17606;SDS011;69222;52.242;20.980;2023-04-25T03:02:34;10.87;;;8.77;;
17606;SDS011;69222;52.242;20.980;2023-04-25T03:05:03;10.47;;;9.13;;
17606;SDS011;69222;52.242;20.980;2023-04-25T03:07:32;10.37;;;8.30;;
17606;SDS011;69222;52.242;20.980;2023-04-25T03:10:00;9.30;;;8.30;;
17606;SDS011;69222;52.242;20.980;2023-04-25T03:12:28;11.00;;;8.53;;
17606;SDS011;69222;52.242;20.980;2023-04-25T03:14:56;10.47;;;9.37;;
17606;SDS011;69222;52.242;20.980;2023-04-25T03:17:24;9.50;;;8.50;;
17606;SDS011;69222;52.242;20.980;2023-04-25T03:19:52;13.50;;;7.93;;
17606;SDS011;69222;52.242;20.980;2023-04-25T03:22:21;9.63;;;8.33;;
17606;SDS011;69222;52.242;20.980;2023-04-25T03:24:50;10.07;;;8.03;;
17606;SDS011;69222;52.242;20.980;2023-04-25T03:27:18;10.97;;;8.60;;
17606;SDS011;69222;52.242;20.980;2023-04-25T03:29:46;8.77;;;7.90;;
17606;SDS011;69222;52.242;20.980;2023-04-25T03:32:14;9.37;;;8.40;;
17606;SDS011;69222;52.242;20.980;2023-04-25T03:34:42;10.70;;;8.87;;
17606;SDS011;69222;52.242;20.980;2023-04-25T03:37:10;9.27;;;7.73;;
17606;SDS011;69222;52.242;20.980;2023-04-25T03:39:39;9.03;;;7.67;;
17606;SDS011;69222;52.242;20.980;2023-04-25T03:42:07;8.97;;;7.57;;
17606;SDS011;69222;52.242;20.980;2023-04-25T03:44:35;10.13;;;8.00;;
17606;SDS011;69222;52.242;20.980;2023-04-25T03:47:03;8.60;;;7.70;;
17606;SDS011;69222;52.242;20.980;2023-04-25T03:49:32;8.63;;;7.83;;
17606;SDS011;69222;52.242;20.980;2023-04-25T03:52:00;8.37;;;7.37;;
17606;SDS011;69222;52.242;20.980;2023-04-25T03:54:28;9.17;;;7.63;;
17606;SDS011;69222;52.242;20.980;2023-04-25T03:56:57;8.40;;;7.27;;
17606;SDS011;69222;52.242;20.980;2023-04-25T03:59:25;9.93;;;8.30;;
17606;SDS011;69222;52.242;20.980;2023-04-25T04:01:53;8.37;;;7.47;;
17606;SDS011;69222;52.242;20.980;2023-04-25T04:04:21;8.63;;;7.33;;
17606;SDS011;69222;52.242;20.980;2023-04-25T04:06:49;7.67;;;6.20;;
17606;SDS011;69222;52.242;20.980;2023-04-25T04:09:18;8.20;;;7.20;;
17606;SDS011;69222;52.242;20.980;2023-04-25T04:11:46;8.07;;;7.23;;
17606;SDS011;69222;52.242;20.980;2023-04-25T04:14:16;7.80;;;7.00;;
17606;SDS011;69222;52.242;20.980;2023-04-25T04:16:43;7.57;;;6.47;;
17606;SDS011;69222;52.242;20.980;2023-04-25T04:19:12;8.13;;;6.77;;
17606;SDS011;69222;52.242;20.980;2023-04-25T04:21:39;8.17;;;6.60;;
17606;SDS011;69222;52.242;20.980;2023-04-25T04:24:08;7.90;;;6.60;;
17606;SDS011;69222;52.242;20.980;2023-04-25T04:26:36;8.17;;;6.40;;
17606;SDS011;69222;52.242;20.980;2023-04-25T04:29:05;9.60;;;7.13;;
17606;SDS011;69222;52.242;20.980;2023-04-25T04:31:34;7.30;;;6.60;;
17606;SDS011;69222;52.242;20.980;2023-04-25T04:34:03;7.67;;;6.63;;
17606;SDS011;69222;52.242;20.980;2023-04-25T04:36:31;7.50;;;6.70;;
17606;SDS011;69222;52.242;20.980;2023-04-25T04:38:59;7.67;;;6.77;;
17606;SDS011;69222;52.242;20.980;2023-04-25T04:41:26;8.33;;;6.30;;
17606;SDS011;69222;52.242;20.980;2023-04-25T04:43:54;7.17;;;6.47;;
17606;SDS011;69222;52.242;20.980;2023-04-25T04:46:23;7.00;;;6.30;;
17606;SDS011;69222;52.242;20.980;2023-04-25T04:48:53;10.80;;;6.93;;
17606;SDS011;69222;52.242;20.980;2023-04-25T04:51:22;9.80;;;6.60;;
17606;SDS011;69222;52.242;20.980;2023-04-25T04:53:50;7.83;;;7.03;;
17606;SDS011;69222;52.242;20.980;2023-04-25T04:56:18;7.87;;;6.53;;
17606;SDS011;69222;52.242;20.980;2023-04-25T04:58:49;7.40;;;6.50;;
17606;SDS011;69222;52.242;20.980;2023-04-25T05:01:17;7.73;;;6.73;;
17606;SDS011;69222;52.242;20.980;2023-04-25T05:03:45;8.83;;;6.87;;
17606;SDS011;69222;52.242;20.980;2023-04-25T05:06:15;8.47;;;6.93;;
17606;SDS011;69222;52.242;20.980;2023-04-25T05:08:43;8.10;;;7.30;;
17606;SDS011;69222;52.242;20.980;2023-04-25T05:11:11;8.00;;;7.20;;
17606;SDS011;69222;52.242;20.980;2023-04-25T05:13:39;10.20;;;6.93;;
17606;SDS011;69222;52.242;20.980;2023-04-25T05:16:07;7.60;;;6.83;;
17606;SDS011;69222;52.242;20.980;2023-04-25T05:18:35;7.90;;;7.03;;
17606;SDS011;69222;52.242;20.980;2023-04-25T05:21:03;8.27;;;7.47;;
17606;SDS011;69222;52.242;20.980;2023-04-25T05:23:33;7.60;;;6.90;;
17606;SDS011;69222;52.242;20.980;2023-04-25T05:26:01;9.23;;;7.67;;
17606;SDS011;69222;52.242;20.980;2023-04-25T05:28:29;7.70;;;7.00;;
17606;SDS011;69222;52.242;20.980;2023-04-25T05:30:57;7.67;;;6.87;;
17606;SDS011;69222;52.242;20.980;2023-04-25T05:33:24;8.10;;;7.30;;
17606;SDS011;69222;52.242;20.980;2023-04-25T05:35:52;8.17;;;6.87;;
17606;SDS011;69222;52.242;20.980;2023-04-25T05:38:20;7.20;;;6.60;;
17606;SDS011;69222;52.242;20.980;2023-04-25T05:40:49;7.90;;;7.07;;
17606;SDS011;69222;52.242;20.980;2023-04-25T05:43:17;7.97;;;7.17;;
17606;SDS011;69222;52.242;20.980;2023-04-25T05:45:45;8.53;;;7.40;;
17606;SDS011;69222;52.242;20.980;2023-04-25T05:48:13;8.40;;;6.87;;
17606;SDS011;69222;52.242;20.980;2023-04-25T05:50:41;7.73;;;7.03;;
17606;SDS011;69222;52.242;20.980;2023-04-25T05:53:09;7.33;;;6.63;;
17606;SDS011;69222;52.242;20.980;2023-04-25T05:55:37;8.13;;;7.37;;
17606;SDS011;69222;52.242;20.980;2023-04-25T05:58:06;8.37;;;7.57;;
17606;SDS011;69222;52.242;20.980;2023-04-25T06:00:34;8.50;;;7.70;;
17606;SDS011;69222;52.242;20.980;2023-04-25T06:03:03;8.10;;;7.23;;
17606;SDS011;69222;52.242;20.980;2023-04-25T06:05:31;10.03;;;8.10;;
17606;SDS011;69222;52.242;20.980;2023-04-25T06:07:59;8.30;;;7.60;;
17606;SDS011;69222;52.242;20.980;2023-04-25T06:10:27;8.30;;;7.50;;
17606;SDS011;69222;52.242;20.980;2023-04-25T06:12:55;8.20;;;7.50;;
17606;SDS011;69222;52.242;20.980;2023-04-25T06:15:25;8.60;;;7.70;;
17606;SDS011;69222;52.242;20.980;2023-04-25T06:17:54;8.30;;;7.53;;
17606;SDS011;69222;52.242;20.980;2023-04-25T06:20:23;8.43;;;7.50;;
17606;SDS011;69222;52.242;20.980;2023-04-25T06:22:51;8.60;;;7.80;;
17606;SDS011;69222;52.242;20.980;2023-04-25T06:25:19;9.00;;;8.00;;
17606;SDS011;69222;52.242;20.980;2023-04-25T06:27:47;8.57;;;7.80;;
17606;SDS011;69222;52.242;20.980;2023-04-25T06:30:15;11.00;;;8.07;;
17606;SDS011;69222;52.242;20.980;2023-04-25T06:32:46;8.87;;;8.03;;
17606;SDS011;69222;52.242;20.980;2023-04-25T06:35:14;9.67;;;8.67;;
17606;SDS011;69222;52.242;20.980;2023-04-25T06:37:42;9.07;;;8.03;;
17606;SDS011;69222;52.242;20.980;2023-04-25T06:40:10;8.73;;;7.67;;
17606;SDS011;69222;52.242;20.980;2023-04-25T06:42:38;8.57;;;7.67;;
17606;SDS011;69222;52.242;20.980;2023-04-25T06:45:06;6.83;;;6.13;;
17606;SDS011;69222;52.242;20.980;2023-04-25T06:47:35;7.50;;;6.80;;
17606;SDS011;69222;52.242;20.980;2023-04-25T06:50:05;6.43;;;5.83;;
17606;SDS011;69222;52.242;20.980;2023-04-25T06:52:33;8.00;;;5.40;;
17606;SDS011;69222;52.242;20.980;2023-04-25T06:55:01;6.77;;;5.80;;
17606;SDS011;69222;52.242;20.980;2023-04-25T06:57:31;11.10;;;6.50;;
17606;SDS011;69222;52.242;20.980;2023-04-25T06:59:59;6.77;;;6.13;;
17606;SDS011;69222;52.242;20.980;2023-04-25T07:02:27;12.40;;;6.33;;
17606;SDS011;69222;52.242;20.980;2023-04-25T07:04:56;8.77;;;6.37;;
17606;SDS011;69222;52.242;20.980;2023-04-25T07:07:27;6.63;;;6.03;;
17606;SDS011;69222;52.242;20.980;2023-04-25T07:09:56;6.90;;;5.70;;
17606;SDS011;69222;52.242;20.980;2023-04-25T07:12:24;6.00;;;5.50;;
17606;SDS011;69222;52.242;20.980;2023-04-25T07:14:52;5.63;;;5.13;;
17606;SDS011;69222;52.242;20.980;2023-04-25T07:17:21;5.77;;;5.07;;
17606;SDS011;69222;52.242;20.980;2023-04-25T07:19:49;8.97;;;4.97;;
17606;SDS011;69222;52.242;20.980;2023-04-25T07:22:17;5.40;;;4.90;;
17606;SDS011;69222;52.242;20.980;2023-04-25T07:24:47;5.07;;;4.57;;
17606;SDS011;69222;52.242;20.980;2023-04-25T07:27:15;5.10;;;4.70;;
17606;SDS011;69222;52.242;20.980;2023-04-25T07:29:43;5.47;;;4.40;;
17606;SDS011;69222;52.242;20.980;2023-04-25T07:32:10;5.10;;;4.60;;
17606;SDS011;69222;52.242;20.980;2023-04-25T07:34:40;5.37;;;4.63;;
17606;SDS011;69222;52.242;20.980;2023-04-25T07:37:08;4.40;;;4.03;;
17606;SDS011;69222;52.242;20.980;2023-04-25T07:39:36;5.37;;;4.87;;
17606;SDS011;69222;52.242;20.980;2023-04-25T07:42:06;4.80;;;4.40;;
17606;SDS011;69222;52.242;20.980;2023-04-25T07:44:34;5.10;;;4.70;;
17606;SDS011;69222;52.242;20.980;2023-04-25T07:47:05;5.57;;;4.57;;
17606;SDS011;69222;52.242;20.980;2023-04-25T07:49:34;4.50;;;3.97;;
17606;SDS011;69222;52.242;20.980;2023-04-25T07:52:03;4.13;;;3.70;;
17606;SDS011;69222;52.242;20.980;2023-04-25T07:54:32;6.03;;;3.83;;
17606;SDS011;69222;52.242;20.980;2023-04-25T07:57:00;5.10;;;4.03;;
17606;SDS011;69222;52.242;20.980;2023-04-25T07:59:31;6.03;;;4.27;;
17606;SDS011;69222;52.242;20.980;2023-04-25T08:01:58;4.60;;;4.03;;
17606;SDS011;69222;52.242;20.980;2023-04-25T08:04:27;5.20;;;4.20;;
17606;SDS011;69222;52.242;20.980;2023-04-25T08:06:55;5.73;;;4.40;;
17606;SDS011;69222;52.242;20.980;2023-04-25T08:09:23;5.40;;;4.37;;
17606;SDS011;69222;52.242;20.980;2023-04-25T08:11:51;5.90;;;5.40;;
17606;SDS011;69222;52.242;20.980;2023-04-25T08:14:19;7.13;;;6.50;;
17606;SDS011;69222;52.242;20.980;2023-04-25T08:16:48;6.23;;;5.73;;
17606;SDS011;69222;52.242;20.980;2023-04-25T08:19:16;6.50;;;5.90;;
17606;SDS011;69222;52.242;20.980;2023-04-25T08:21:44;6.97;;;6.30;;
17606;SDS011;69222;52.242;20.980;2023-04-25T08:24:12;6.27;;;5.67;;
17606;SDS011;69222;52.242;20.980;2023-04-25T08:26:40;6.10;;;5.50;;
17606;SDS011;69222;52.242;20.980;2023-04-25T08:29:08;6.33;;;5.73;;
17606;SDS011;69222;52.242;20.980;2023-04-25T08:31:36;5.77;;;5.33;;
17606;SDS011;69222;52.242;20.980;2023-04-25T08:34:05;4.33;;;4.03;;
17606;SDS011;69222;52.242;20.980;2023-04-25T08:36:33;4.00;;;3.57;;
17606;SDS011;69222;52.242;20.980;2023-04-25T08:39:05;3.80;;;3.50;;
17606;SDS011;69222;52.242;20.980;2023-04-25T08:41:33;3.77;;;3.40;;
17606;SDS011;69222;52.242;20.980;2023-04-25T08:44:01;5.47;;;3.50;;
17606;SDS011;69222;52.242;20.980;2023-04-25T08:46:30;3.87;;;3.47;;
17606;SDS011;69222;52.242;20.980;2023-04-25T08:49:00;4.53;;;4.23;;
17606;SDS011;69222;52.242;20.980;2023-04-25T08:51:31;5.10;;;4.60;;
17606;SDS011;69222;52.242;20.980;2023-04-25T08:54:02;4.90;;;4.40;;
17606;SDS011;69222;52.242;20.980;2023-04-25T08:56:57;5.20;;;4.80;;
17606;SDS011;69222;52.242;20.980;2023-04-25T08:59:28;4.97;;;4.57;;
17606;SDS011;69222;52.242;20.980;2023-04-25T09:01:57;4.47;;;4.07;;
17606;SDS011;69222;52.242;20.980;2023-04-25T09:04:25;4.97;;;4.00;;
17606;SDS011;69222;52.242;20.980;2023-04-25T09:06:54;4.50;;;3.90;;
17606;SDS011;69222;52.242;20.980;2023-04-25T09:09:23;3.70;;;3.40;;
17606;SDS011;69222;52.242;20.980;2023-04-25T09:11:51;3.67;;;3.37;;
17606;SDS011;69222;52.242;20.980;2023-04-25T09:14:22;3.80;;;3.50;;
17606;SDS011;69222;52.242;20.980;2023-04-25T09:16:58;3.40;;;3.10;;
17606;SDS011;69222;52.242;20.980;2023-04-25T09:19:29;4.60;;;4.20;;
17606;SDS011;69222;52.242;20.980;2023-04-25T09:22:08;5.33;;;4.80;;
17606;SDS011;69222;52.242;20.980;2023-04-25T09:24:36;5.77;;;5.10;;
17606;SDS011;69222;52.242;20.980;2023-04-25T09:27:05;7.87;;;5.93;;
17606;SDS011;69222;52.242;20.980;2023-04-25T09:29:35;7.30;;;6.00;;
17606;SDS011;69222;52.242;20.980;2023-04-25T09:32:10;6.17;;;5.63;;
17606;SDS011;69222;52.242;20.980;2023-04-25T09:34:40;6.53;;;5.93;;
17606;SDS011;69222;52.242;20.980;2023-04-25T09:37:16;7.13;;;6.43;;
17606;SDS011;69222;52.242;20.980;2023-04-25T09:39:45;6.83;;;6.23;;
17606;SDS011;69222;52.242;20.980;2023-04-25T09:42:14;7.10;;;6.40;;
17606;SDS011;69222;52.242;20.980;2023-04-25T09:44:43;6.83;;;6.23;;
17606;SDS011;69222;52.242;20.980;2023-04-25T09:47:12;7.07;;;6.47;;
17606;SDS011;69222;52.242;20.980;2023-04-25T09:49:42;7.57;;;6.87;;
17606;SDS011;69222;52.242;20.980;2023-04-25T09:52:15;7.07;;;6.47;;
17606;SDS011;69222;52.242;20.980;2023-04-25T09:54:44;7.60;;;6.90;;
17606;SDS011;69222;52.242;20.980;2023-04-25T09:57:13;8.10;;;7.40;;
17606;SDS011;69222;52.242;20.980;2023-04-25T09:59:45;8.20;;;7.00;;
17606;SDS011;69222;52.242;20.980;2023-04-25T10:02:15;8.63;;;7.90;;
17606;SDS011;69222;52.242;20.980;2023-04-25T10:04:47;8.67;;;7.77;;
17606;SDS011;69222;52.242;20.980;2023-04-25T10:07:19;9.20;;;8.40;;
17606;SDS011;69222;52.242;20.980;2023-04-25T10:09:53;10.67;;;9.13;;
17606;SDS011;69222;52.242;20.980;2023-04-25T10:12:26;9.10;;;8.23;;
17606;SDS011;69222;52.242;20.980;2023-04-25T10:14:54;9.43;;;8.53;;
17606;SDS011;69222;52.242;20.980;2023-04-25T10:17:22;12.80;;;9.43;;
17606;SDS011;69222;52.242;20.980;2023-04-25T10:19:51;9.27;;;8.43;;
17606;SDS011;69222;52.242;20.980;2023-04-25T10:22:23;10.27;;;9.23;;
17606;SDS011;69222;52.242;20.980;2023-04-25T10:24:58;10.40;;;9.50;;
17606;SDS011;69222;52.242;20.980;2023-04-25T10:27:26;10.00;;;9.03;;
17606;SDS011;69222;52.242;20.980;2023-04-25T10:30:04;9.93;;;9.03;;
17606;SDS011;69222;52.242;20.980;2023-04-25T10:32:36;10.17;;;9.27;;
17606;SDS011;69222;52.242;20.980;2023-04-25T10:35:11;10.83;;;9.83;;
17606;SDS011;69222;52.242;20.980;2023-04-25T10:40:31;10.63;;;9.63;;
17606;SDS011;69222;52.242;20.980;2023-04-25T10:46:01;11.03;;;9.93;;
17606;SDS011;69222;52.242;20.980;2023-04-25T10:48:32;10.67;;;9.67;;
17606;SDS011;69222;52.242;20.980;2023-04-25T10:51:07;10.17;;;9.27;;
17606;SDS011;69222;52.242;20.980;2023-04-25T10:53:37;10.30;;;9.40;;
17606;SDS011;69222;52.242;20.980;2023-04-25T10:56:11;9.90;;;9.10;;
17606;SDS011;69222;52.242;20.980;2023-04-25T10:58:44;9.47;;;8.60;;
17606;SDS011;69222;52.242;20.980;2023-04-25T11:01:19;11.00;;;9.90;;
17606;SDS011;69222;52.242;20.980;2023-04-25T11:03:48;10.57;;;9.57;;
17606;SDS011;69222;52.242;20.980;2023-04-25T11:06:20;9.93;;;8.97;;
17606;SDS011;69222;52.242;20.980;2023-04-25T11:08:52;10.43;;;9.30;;
17606;SDS011;69222;52.242;20.980;2023-04-25T11:11:20;10.60;;;9.60;;
17606;SDS011;69222;52.242;20.980;2023-04-25T11:13:48;10.37;;;9.37;;
17606;SDS011;69222;52.242;20.980;2023-04-25T11:16:17;10.03;;;9.23;;
17606;SDS011;69222;52.242;20.980;2023-04-25T11:18:53;10.50;;;9.60;;
17606;SDS011;69222;52.242;20.980;2023-04-25T11:21:24;10.07;;;9.23;;
17606;SDS011;69222;52.242;20.980;2023-04-25T11:23:55;9.97;;;9.13;;
17606;SDS011;69222;52.242;20.980;2023-04-25T11:26:24;9.93;;;8.93;;
17606;SDS011;69222;52.242;20.980;2023-04-25T11:28:55;8.60;;;7.80;;
17606;SDS011;69222;52.242;20.980;2023-04-25T11:31:24;8.47;;;7.80;;
17606;SDS011;69222;52.242;20.980;2023-04-25T11:33:53;9.00;;;8.20;;
17606;SDS011;69222;52.242;20.980;2023-04-25T11:36:22;8.60;;;7.80;;
17606;SDS011;69222;52.242;20.980;2023-04-25T11:38:52;8.50;;;7.67;;
17606;SDS011;69222;52.242;20.980;2023-04-25T11:41:22;8.30;;;7.60;;
17606;SDS011;69222;52.242;20.980;2023-04-25T11:43:51;9.03;;;7.83;;
17606;SDS011;69222;52.242;20.980;2023-04-25T11:46:21;7.80;;;7.10;;
17606;SDS011;69222;52.242;20.980;2023-04-25T11:48:49;8.57;;;7.67;;
17606;SDS011;69222;52.242;20.980;2023-04-25T11:51:18;8.13;;;7.33;;
17606;SDS011;69222;52.242;20.980;2023-04-25T11:53:46;8.40;;;7.60;;
17606;SDS011;69222;52.242;20.980;2023-04-25T11:56:14;7.83;;;7.17;;
17606;SDS011;69222;52.242;20.980;2023-04-25T11:58:56;7.80;;;7.10;;
17606;SDS011;69222;52.242;20.980;2023-04-25T12:01:26;8.13;;;7.33;;
17606;SDS011;69222;52.242;20.980;2023-04-25T12:04:09;6.87;;;6.27;;
17606;SDS011;69222;52.242;20.980;2023-04-25T12:06:40;7.80;;;6.33;;
17606;SDS011;69222;52.242;20.980;2023-04-25T12:09:09;7.00;;;6.30;;
17606;SDS011;69222;52.242;20.980;2023-04-25T12:11:42;7.00;;;6.30;;
17606;SDS011;69222;52.242;20.980;2023-04-25T12:14:20;6.67;;;6.07;;
17606;SDS011;69222;52.242;20.980;2023-04-25T12:16:50;6.30;;;5.80;;
17606;SDS011;69222;52.242;20.980;2023-04-25T12:19:19;8.93;;;5.77;;
17606;SDS011;69222;52.242;20.980;2023-04-25T12:21:48;4.97;;;4.57;;
17606;SDS011;69222;52.242;20.980;2023-04-25T12:24:24;4.70;;;4.20;;
17606;SDS011;69222;52.242;20.980;2023-04-25T12:26:58;4.50;;;4.20;;
17606;SDS011;69222;52.242;20.980;2023-04-25T12:29:30;5.37;;;4.13;;
17606;SDS011;69222;52.242;20.980;2023-04-25T12:32:13;4.70;;;4.30;;
17606;SDS011;69222;52.242;20.980;2023-04-25T12:34:41;4.60;;;4.20;;
17606;SDS011;69222;52.242;20.980;2023-04-25T12:37:09;5.30;;;4.80;;
17606;SDS011;69222;52.242;20.980;2023-04-25T12:39:38;4.67;;;4.20;;
17606;SDS011;69222;52.242;20.980;2023-04-25T12:42:06;5.20;;;4.30;;
17606;SDS011;69222;52.242;20.980;2023-04-25T12:44:39;5.57;;;4.40;;
17606;SDS011;69222;52.242;20.980;2023-04-25T12:47:08;5.40;;;4.20;;
17606;SDS011;69222;52.242;20.980;2023-04-25T12:49:36;5.33;;;4.43;;
17606;SDS011;69222;52.242;20.980;2023-04-25T12:52:04;4.93;;;4.17;;
17606;SDS011;69222;52.242;20.980;2023-04-25T12:54:32;4.73;;;4.23;;
17606;SDS011;69222;52.242;20.980;2023-04-25T12:57:00;4.50;;;3.83;;
17606;SDS011;69222;52.242;20.980;2023-04-25T12:59:29;4.57;;;4.17;;
17606;SDS011;69222;52.242;20.980;2023-04-25T13:01:59;4.93;;;4.37;;
17606;SDS011;69222;52.242;20.980;2023-04-25T13:04:27;4.90;;;4.37;;
17606;SDS011;69222;52.242;20.980;2023-04-25T13:06:55;4.10;;;3.70;;
17606;SDS011;69222;52.242;20.980;2023-04-25T13:09:23;5.53;;;4.47;;
17606;SDS011;69222;52.242;20.980;2023-04-25T13:11:51;4.30;;;4.00;;
17606;SDS011;69222;52.242;20.980;2023-04-25T13:14:23;4.47;;;4.17;;
17606;SDS011;69222;52.242;20.980;2023-04-25T13:16:51;4.70;;;4.30;;
17606;SDS011;69222;52.242;20.980;2023-04-25T13:19:22;5.10;;;4.60;;
17606;SDS011;69222;52.242;20.980;2023-04-25T13:21:50;5.20;;;4.73;;
17606;SDS011;69222;52.242;20.980;2023-04-25T13:24:18;4.57;;;4.17;;
17606;SDS011;69222;52.242;20.980;2023-04-25T13:26:46;4.43;;;4.00;;
17606;SDS011;69222;52.242;20.980;2023-04-25T13:29:14;4.57;;;4.17;;
17606;SDS011;69222;52.242;20.980;2023-04-25T13:31:42;4.63;;;4.23;;
17606;SDS011;69222;52.242;20.980;2023-04-25T13:34:10;5.30;;;4.77;;
17606;SDS011;69222;52.242;20.980;2023-04-25T13:36:40;4.83;;;4.17;;
17606;SDS011;69222;52.242;20.980;2023-04-25T13:39:08;3.70;;;3.40;;
17606;SDS011;69222;52.242;20.980;2023-04-25T13:41:37;4.47;;;3.63;;
17606;SDS011;69222;52.242;20.980;2023-04-25T13:44:05;4.33;;;3.90;;
17606;SDS011;69222;52.242;20.980;2023-04-25T13:46:33;4.10;;;3.63;;
17606;SDS011;69222;52.242;20.980;2023-04-25T13:49:06;3.67;;;3.37;;
17606;SDS011;69222;52.242;20.980;2023-04-25T13:51:40;4.97;;;3.83;;
17606;SDS011;69222;52.242;20.980;2023-04-25T13:54:09;4.60;;;4.20;;
17606;SDS011;69222;52.242;20.980;2023-04-25T13:56:37;3.60;;;3.30;;
17606;SDS011;69222;52.242;20.980;2023-04-25T13:59:05;4.00;;;3.70;;
17606;SDS011;69222;52.242;20.980;2023-04-25T14:01:33;3.87;;;3.50;;
17606;SDS011;69222;52.242;20.980;2023-04-25T14:04:02;7.47;;;4.27;;
17606;SDS011;69222;52.242;20.980;2023-04-25T14:06:31;4.10;;;3.77;;
17606;SDS011;69222;52.242;20.980;2023-04-25T14:09:00;4.70;;;3.53;;
17606;SDS011;69222;52.242;20.980;2023-04-25T14:11:30;4.13;;;3.47;;
17606;SDS011;69222;52.242;20.980;2023-04-25T14:13:58;3.80;;;3.50;;
17606;SDS011;69222;52.242;20.980;2023-04-25T14:16:26;4.30;;;3.90;;
17606;SDS011;69222;52.242;20.980;2023-04-25T14:18:55;3.77;;;3.47;;
17606;SDS011;69222;52.242;20.980;2023-04-25T14:21:24;4.13;;;3.77;;
17606;SDS011;69222;52.242;20.980;2023-04-25T14:23:53;3.77;;;3.40;;
17606;SDS011;69222;52.242;20.980;2023-04-25T14:26:22;5.60;;;3.87;;
17606;SDS011;69222;52.242;20.980;2023-04-25T14:28:50;5.07;;;3.47;;
17606;SDS011;69222;52.242;20.980;2023-04-25T14:31:19;3.40;;;3.10;;
17606;SDS011;69222;52.242;20.980;2023-04-25T14:33:47;3.57;;;3.27;;
17606;SDS011;69222;52.242;20.980;2023-04-25T14:36:15;3.30;;;3.07;;
17606;SDS011;69222;52.242;20.980;2023-04-25T14:38:44;3.43;;;3.13;;
17606;SDS011;69222;52.242;20.980;2023-04-25T14:41:12;4.10;;;3.70;;
17606;SDS011;69222;52.242;20.980;2023-04-25T14:43:41;4.83;;;3.60;;
17606;SDS011;69222;52.242;20.980;2023-04-25T14:46:10;3.87;;;3.50;;